Here is the Quick Look data you requested

The Data originates at the National Weather Service, and is made available here by the UAlbany Department of Atmospheric and Environmental Sciences

Surface Observations

KCVG 240952Z 00000KT 10SM BKN006 15/14 A2992 RMK AO2 SLP124 T01500144 $=
KCVG 241052Z 00000KT 10SM OVC005 17/16 A2993 RMK AO2 SLP127 T01670161 $=
KCVG 241122Z 21003KT 2SM OVC005 17/16 A2993 RMK AO2 SFC VIS 8 T01720161 $=
KCVG 241129Z 00000KT 2SM OVC004 17/16 A2993 RMK AO2 SFC VIS 8 T01720161 $=
KCVG 241152Z 00000KT 2SM BR OVC003 17/16 A2995 RMK AO2 SFC VIS 3 SLP133 70003
 T01720161 10172 20150 53008=
KCVG 241250Z 00000KT 3SM HZ OVC004 18/01 A2997 RMK AO2 SFC VIS 6 $=
KCVG 241252Z 00000KT 3SM HZ OVC005 18/05 A2997 RMK AO2 SFC VIS 5 SLP140
 T01780050 $=
KCVG 241352Z 00000KT 3SM BKN009 20/17 A2996 RMK AO2 SFC VIS 10 SLP138 T02000172
 $=
KCVG 241405Z 15003KT 10SM SCT010 BKN200 21/18 A2995 RMK AO2 T02060183 $=
KCVG 241452Z 11005KT 10SM FEW015 SCT250 22/17 A2994 RMK AO2 SLP129 T02170172
 58010 $=
KCVG 241552Z 15005KT 10SM FEW040 23/18 A2993 RMK AO2 SLP128 T02330183 $=
KCVG 241652Z 17008KT 10SM SCT035 BKN200 25/18 A2994 RMK AO2 SLP129 T02500178 $=
KCVG 241752Z 18009G16KT 10SM FEW045 BKN190 26/18 A2993 RMK AO2 SLP126 T02560178
 10261 20172 58002 $=
KCVG 241852Z 18008G14KT 10SM SCT035 BKN200 26/18 A2990 RMK AO2 SLP117 T02560178
 $=
KCVG 241952Z 21010KT 10SM SCT042 BKN200 27/17 A2988 RMK AO2 SLP110 T02670172 $=
KCVG 242052Z 19011KT 10SM BKN041 BKN048 BKN200 27/18 A2986 RMK AO2 SLP101
 T02670178 56024 $=
KCVG 242152Z 18007KT 10SM FEW039 BKN043 BKN250 26/17 A2986 RMK AO2 SLP104
 T02560172 $=
KCVG 242252Z 18006KT 10SM FEW043 SCT055 BKN080 26/18 A2987 RMK AO2 SLP106
 T02560178 $=
KCVG 242352Z 19003KT 10SM -RA FEW047 BKN060 BKN080 24/19 A2986 RMK AO2 RAB52
 CIG 044 36R SLP104 P0000 60000 T02440189 10272 20244 50002 $=
KCVG 250052Z 13008KT 10SM SCT043 SCT070 BKN160 24/17 A2985 RMK AO2 LTG DSNT S
 AND SW RAE01 SLP100 P0000 T02390172 $=
KCVG 250152Z 13008KT 10SM FEW065 BKN160 23/17 A2985 RMK AO2 SLP100 T02330172 $=
KCVG 250252Z 18005KT 10SM SCT250 22/18 A2987 RMK AO2 SLP105 60000 T02170183
 53001 $=
KCVG 250352Z 19006KT 10SM BKN250 21/18 A2986 RMK AO2 SLP104 T02060183 $=
KCVG 250452Z 20006KT 10SM SCT030 SCT095 OVC140 21/19 A2987 RMK AO2 SLP105
 T02110189 402720150 $=
KCVG 250519Z 20004KT 9SM BKN026 BKN039 OVC100 21/19 A2986 RMK AO2 T02110189 $=
KCVG 250526Z VRB05KT 6SM -RA BR FEW027 BKN060 OVC100 21/19 A2986 RMK AO2 RAB20
 CIG 032 36R P0002 T02060189 $=
KCVG 250552Z 19006KT 10SM FEW028 SCT034 OVC060 21/19 A2985 RMK AO2 RAB20E39 CIG
 034 36R SLP098 P0003 60003 T02060189 10250 20206 58005 $=
KCVG 250652Z 17005KT 10SM FEW043 FEW060 SCT230 20/19 A2982 RMK AO2 SLP086
 T02000189 $=
KCVG 250752Z 19003KT 10SM FEW018 BKN120 20/18 A2980 RMK AO2 SLP082 T02000183 $=
KCVG 250852Z 14003KT 10SM OVC120 19/18 A2982 RMK AO2 SLP087 T01940178 55012 $=
KCVG 250952Z 20004KT 10SM OVC100 19/18 A2984 RMK AO2 SLP094 T01940183 $=